Time;durP1;ratioP1;P1;durP2;ratioP2;P2;SDS_P1;SDS_P2;PMS_P1;PMS_P2;Temp;Humidity;BMP_temperature;BMP_pressure;BME280_temperature;BME280_humidity;BME280_pressure;Samples;Min_cycle;Max_cycle;Signal;HPM_P1;HPM_P2
2023/05/20 00:00:11;;;;;;;3.60;2.60;;;;;;;;;;5053157;28;20112;-57
2023/05/20 00:02:37;;;;;;;3.50;2.55;;;;;;;;;;5053003;28;20040;-57
2023/05/20 00:05:03;;;;;;;3.40;2.17;;;;;;;;;;5053205;28;20017;-57
2023/05/20 00:07:29;;;;;;;3.40;2.55;;;;;;;;;;5053517;28;20104;-57
2023/05/20 00:09:55;;;;;;;3.65;2.35;;;;;;;;;;5056855;28;20028;-57
2023/05/20 00:12:21;;;;;;;5.25;2.75;;;;;;;;;;5056997;28;20029;-57
2023/05/20 00:14:47;;;;;;;4.10;3.20;;;;;;;;;;5057294;28;20459;-57
2023/05/20 00:17:12;;;;;;;3.38;2.78;;;;;;;;;;5056828;28;20029;-57
2023/05/20 00:19:38;;;;;;;4.72;2.92;;;;;;;;;;5056752;28;20029;-57
2023/05/20 00:22:04;;;;;;;4.57;3.47;;;;;;;;;;5056778;28;20057;-57
2023/05/20 00:24:30;;;;;;;4.75;2.83;;;;;;;;;;5056786;28;20028;-57
2023/05/20 00:26:56;;;;;;;4.88;3.05;;;;;;;;;;5056739;28;20021;-57
2023/05/20 00:29:22;;;;;;;4.60;3.10;;;;;;;;;;5057442;28;20463;-57
2023/05/20 00:31:48;;;;;;;4.85;3.45;;;;;;;;;;5056613;28;20104;-57
2023/05/20 00:34:14;;;;;;;4.95;3.00;;;;;;;;;;5057029;28;20112;-57
2023/05/20 00:36:41;;;;;;;5.60;3.25;;;;;;;;;;5056859;28;20048;-57
2023/05/20 00:39:07;;;;;;;4.60;3.20;;;;;;;;;;5056373;28;20108;-57
2023/05/20 00:41:34;;;;;;;4.40;2.95;;;;;;;;;;5056474;28;20099;-57
2023/05/20 00:44:00;;;;;;;4.60;3.25;;;;;;;;;;5056358;28;20356;-57
2023/05/20 00:46:28;;;;;;;4.03;2.70;;;;;;;;;;5056616;28;20433;-57
2023/05/20 00:48:54;;;;;;;3.92;3.20;;;;;;;;;;5056205;28;20055;-57
2023/05/20 00:51:20;;;;;;;5.22;3.53;;;;;;;;;;5056721;28;20025;-57
2023/05/20 00:53:46;;;;;;;4.32;3.50;;;;;;;;;;5056699;28;20100;-57
2023/05/20 00:56:12;;;;;;;7.35;3.60;;;;;;;;;;5056407;28;20025;-57
2023/05/20 00:58:39;;;;;;;4.53;3.30;;;;;;;;;;5055719;28;20029;-57
2023/05/20 01:01:05;;;;;;;4.82;3.65;;;;;;;;;;5056205;28;20383;-57
2023/05/20 01:03:32;;;;;;;3.42;2.92;;;;;;;;;;5056356;28;20029;-57
2023/05/20 01:05:58;;;;;;;3.95;2.97;;;;;;;;;;5056313;28;20451;-57
2023/05/20 01:08:24;;;;;;;4.72;2.95;;;;;;;;;;5056204;28;20037;-57
2023/05/20 01:11:03;;;;;;;4.40;3.13;;;;;;;;;;5056208;28;20032;-57
2023/05/20 01:13:33;;;;;;;4.28;3.25;;;;;;;;;;5055513;28;20108;-57
2023/05/20 01:16:00;;;;;;;5.68;3.85;;;;;;;;;;5056327;28;20029;-57
2023/05/20 01:18:29;;;;;;;4.18;3.17;;;;;;;;;;5055777;28;20071;-57
2023/05/20 01:20:54;;;;;;;3.90;2.80;;;;;;;;;;5056076;28;20025;-57
2023/05/20 01:23:21;;;;;;;3.53;2.60;;;;;;;;;;5055378;28;20087;-57
2023/05/20 01:25:52;;;;;;;4.13;2.90;;;;;;;;;;5055841;28;20455;-57
2023/05/20 01:28:18;;;;;;;6.30;3.20;;;;;;;;;;5055817;28;20417;-57
2023/05/20 01:30:50;;;;;;;4.13;3.08;;;;;;;;;;5055273;28;20037;-57
2023/05/20 01:33:18;;;;;;;3.58;2.72;;;;;;;;;;5055488;28;20454;-57
2023/05/20 01:35:44;;;;;;;5.20;2.80;;;;;;;;;;5056207;28;20032;-57
2023/05/20 01:38:11;;;;;;;4.63;3.30;;;;;;;;;;5055573;28;20025;-57
2023/05/20 01:40:37;;;;;;;4.18;2.97;;;;;;;;;;5055856;28;20541;-57
2023/05/20 01:43:03;;;;;;;5.25;3.65;;;;;;;;;;5055708;28;20104;-57
2023/05/20 01:45:30;;;;;;;4.75;3.38;;;;;;;;;;5055254;28;20451;-57
2023/05/20 01:47:56;;;;;;;5.68;3.42;;;;;;;;;;5055171;28;20025;-58
2023/05/20 01:50:22;;;;;;;7.05;2.78;;;;;;;;;;5054821;28;20024;-58
2023/05/20 01:52:48;;;;;;;3.72;2.85;;;;;;;;;;5055390;28;20025;-58
2023/05/20 01:55:14;;;;;;;3.80;2.65;;;;;;;;;;5054934;28;20043;-58
2023/05/20 01:57:40;;;;;;;5.40;2.50;;;;;;;;;;5055263;28;20052;-58
2023/05/20 02:00:06;;;;;;;5.40;4.10;;;;;;;;;;5055156;28;20043;-58
2023/05/20 02:02:32;;;;;;;4.10;2.97;;;;;;;;;;5055155;28;20041;-58
2023/05/20 02:04:58;;;;;;;3.90;2.97;;;;;;;;;;5055122;28;20104;-58
2023/05/20 02:07:24;;;;;;;3.75;2.83;;;;;;;;;;5054884;28;20067;-58
2023/05/20 02:09:50;;;;;;;3.95;2.40;;;;;;;;;;5054654;28;20105;-58
2023/05/20 02:12:16;;;;;;;5.20;3.72;;;;;;;;;;5054715;28;20025;-58
2023/05/20 02:14:44;;;;;;;4.38;3.45;;;;;;;;;;5054846;28;20056;-58
2023/05/20 02:17:10;;;;;;;5.15;3.20;;;;;;;;;;5054913;28;20455;-58
2023/05/20 02:19:36;;;;;;;3.40;2.92;;;;;;;;;;5054487;28;20041;-58
2023/05/20 02:22:02;;;;;;;4.55;2.78;;;;;;;;;;5054476;28;20036;-58
2023/05/20 02:24:28;;;;;;;4.15;3.25;;;;;;;;;;5054783;28;20025;-58
2023/05/20 02:26:56;;;;;;;4.03;3.35;;;;;;;;;;5054731;28;20170;-58
2023/05/20 02:29:22;;;;;;;4.68;3.50;;;;;;;;;;5054866;28;20032;-58
2023/05/20 02:31:48;;;;;;;4.35;3.17;;;;;;;;;;5054159;28;20028;-58
2023/05/20 02:34:14;;;;;;;4.43;3.40;;;;;;;;;;5054831;28;20024;-58
2023/05/20 02:36:41;;;;;;;3.72;2.95;;;;;;;;;;5054643;28;20032;-58
2023/05/20 02:39:07;;;;;;;4.53;3.35;;;;;;;;;;5054354;28;20032;-58
2023/05/20 02:41:33;;;;;;;3.72;3.15;;;;;;;;;;5054786;28;20363;-58
2023/05/20 02:43:59;;;;;;;4.10;3.08;;;;;;;;;;5054126;28;20510;-58
2023/05/20 02:46:25;;;;;;;7.95;3.28;;;;;;;;;;5054407;28;20203;-58
2023/05/20 02:48:51;;;;;;;5.50;3.28;;;;;;;;;;5054106;28;20056;-58
2023/05/20 02:51:17;;;;;;;4.68;3.67;;;;;;;;;;5054035;28;20423;-58
2023/05/20 02:53:43;;;;;;;3.78;2.95;;;;;;;;;;5054024;28;20029;-58
2023/05/20 02:56:09;;;;;;;3.38;3.05;;;;;;;;;;5053910;28;20418;-58
2023/05/20 02:58:36;;;;;;;4.72;3.50;;;;;;;;;;5053843;28;20115;-58
2023/05/20 03:01:02;;;;;;;3.83;3.20;;;;;;;;;;5053452;28;20455;-58
2023/05/20 03:03:28;;;;;;;4.57;3.58;;;;;;;;;;5053855;28;20374;-58
2023/05/20 03:05:54;;;;;;;3.80;3.03;;;;;;;;;;5054671;28;20364;-58
2023/05/20 03:08:21;;;;;;;4.60;4.10;;;;;;;;;;5053778;28;20029;-58
2023/05/20 03:10:47;;;;;;;4.10;3.05;;;;;;;;;;5054282;28;20462;-58
2023/05/20 03:13:14;;;;;;;4.55;3.95;;;;;;;;;;5054313;28;20033;-58
2023/05/20 03:15:40;;;;;;;5.45;4.18;;;;;;;;;;5054449;28;20467;-58
2023/05/20 03:18:09;;;;;;;4.65;3.67;;;;;;;;;;5054177;28;20027;-58
2023/05/20 03:20:37;;;;;;;6.03;3.50;;;;;;;;;;5053610;28;20059;-58
2023/05/20 03:23:03;;;;;;;3.97;3.35;;;;;;;;;;5053638;28;20033;-58
2023/05/20 03:25:29;;;;;;;6.13;3.95;;;;;;;;;;5053581;28;20029;-58
2023/05/20 03:27:57;;;;;;;4.50;3.25;;;;;;;;;;5054143;28;20029;-58
2023/05/20 03:30:23;;;;;;;4.72;3.60;;;;;;;;;;5053587;28;20363;-58
2023/05/20 03:32:49;;;;;;;4.05;3.60;;;;;;;;;;5054407;28;20036;-58
2023/05/20 03:35:15;;;;;;;5.03;3.17;;;;;;;;;;5053598;28;20025;-58
2023/05/20 03:37:41;;;;;;;3.83;3.17;;;;;;;;;;5054378;28;20025;-58
2023/05/20 03:40:09;;;;;;;5.07;3.67;;;;;;;;;;5053162;28;20033;-58
2023/05/20 03:42:35;;;;;;;4.60;3.92;;;;;;;;;;5054927;28;20033;-58
2023/05/20 03:45:01;;;;;;;5.25;3.15;;;;;;;;;;5057833;28;20085;-58
2023/05/20 03:47:27;;;;;;;4.57;3.45;;;;;;;;;;5057862;28;20025;-58
2023/05/20 03:49:53;;;;;;;5.15;3.97;;;;;;;;;;5058212;28;20032;-58
2023/05/20 03:52:19;;;;;;;5.68;3.78;;;;;;;;;;5057364;28;20028;-58
2023/05/20 03:54:45;;;;;;;4.10;3.53;;;;;;;;;;5057211;28;20079;-58
2023/05/20 03:57:11;;;;;;;5.03;4.40;;;;;;;;;;5057405;28;20056;-58
2023/05/20 03:59:37;;;;;;;4.93;3.70;;;;;;;;;;5057770;28;20124;-58
2023/05/20 04:02:03;;;;;;;4.00;3.17;;;;;;;;;;5057840;28;20040;-58
2023/05/20 04:04:30;;;;;;;4.85;3.53;;;;;;;;;;5057559;28;20025;-58
2023/05/20 04:06:55;;;;;;;5.60;3.40;;;;;;;;;;5057275;28;20064;-58
2023/05/20 04:09:22;;;;;;;4.50;3.97;;;;;;;;;;5057362;28;20048;-58
2023/05/20 04:11:48;;;;;;;4.40;3.97;;;;;;;;;;5056848;28;20035;-58
2023/05/20 04:14:14;;;;;;;5.43;3.35;;;;;;;;;;5057248;28;20048;-59
2023/05/20 04:16:40;;;;;;;4.60;3.95;;;;;;;;;;5057301;28;20103;-59
2023/05/20 04:19:07;;;;;;;5.63;4.18;;;;;;;;;;5057446;28;20025;-59
2023/05/20 04:21:33;;;;;;;4.50;3.85;;;;;;;;;;5056813;28;20526;-58
2023/05/20 04:23:59;;;;;;;6.82;3.20;;;;;;;;;;5057124;28;20092;-58
2023/05/20 04:26:25;;;;;;;4.28;3.10;;;;;;;;;;5057430;28;20040;-59
2023/05/20 04:28:51;;;;;;;4.20;3.80;;;;;;;;;;5056804;28;20485;-58
2023/05/20 04:31:19;;;;;;;3.65;2.55;;;;;;;;;;5056771;28;20056;-58
2023/05/20 04:33:45;;;;;;;4.63;4.13;;;;;;;;;;5056590;28;20039;-58
2023/05/20 04:36:15;;;;;;;5.25;3.65;;;;;;;;;;5056990;28;20112;-58
2023/05/20 04:38:43;;;;;;;4.53;3.55;;;;;;;;;;5056586;28;20025;-58
2023/05/20 04:41:09;;;;;;;4.20;3.78;;;;;;;;;;5056399;28;20048;-58
2023/05/20 04:43:37;;;;;;;3.92;3.35;;;;;;;;;;5056445;28;20091;-58
2023/05/20 04:46:04;;;;;;;4.65;3.55;;;;;;;;;;5057280;28;20039;-58
2023/05/20 04:48:31;;;;;;;5.70;3.58;;;;;;;;;;5056663;28;20040;-58
2023/05/20 04:50:57;;;;;;;5.95;4.15;;;;;;;;;;5056339;28;20375;-58
2023/05/20 04:53:23;;;;;;;4.72;4.13;;;;;;;;;;5056685;28;20074;-58
2023/05/20 04:55:52;;;;;;;3.92;3.53;;;;;;;;;;5055948;28;20402;-58
2023/05/20 04:58:18;;;;;;;4.65;3.88;;;;;;;;;;5056410;28;20455;-58
2023/05/20 05:00:44;;;;;;;4.40;3.65;;;;;;;;;;5056018;28;20025;-59
2023/05/20 05:03:14;;;;;;;5.00;3.83;;;;;;;;;;5056090;28;20029;-58
2023/05/20 05:05:41;;;;;;;3.95;3.50;;;;;;;;;;5056061;28;20143;-58
2023/05/20 05:08:07;;;;;;;5.15;3.78;;;;;;;;;;5056501;28;20409;-58
2023/05/20 05:10:33;;;;;;;5.30;3.60;;;;;;;;;;5056500;28;20139;-58
2023/05/20 05:12:59;;;;;;;5.00;3.67;;;;;;;;;;5056208;28;20025;-59
2023/05/20 05:15:25;;;;;;;4.35;3.88;;;;;;;;;;5055447;28;20463;-59
2023/05/20 05:17:51;;;;;;;3.92;3.08;;;;;;;;;;5055624;28;20429;-58
2023/05/20 05:20:17;;;;;;;4.22;3.78;;;;;;;;;;5056347;28;20029;-58
2023/05/20 05:22:43;;;;;;;5.30;4.03;;;;;;;;;;5055473;28;20065;-58
2023/05/20 05:25:09;;;;;;;5.63;3.92;;;;;;;;;;5056016;28;20340;-58
2023/05/20 05:27:35;;;;;;;3.92;3.33;;;;;;;;;;5055493;28;20116;-58
2023/05/20 05:30:02;;;;;;;4.70;3.80;;;;;;;;;;5055800;28;20390;-58
2023/05/20 05:32:28;;;;;;;3.88;3.45;;;;;;;;;;5055292;28;20025;-58
2023/05/20 05:34:54;;;;;;;4.45;3.40;;;;;;;;;;5055527;28;20352;-58
2023/05/20 05:37:20;;;;;;;5.55;3.83;;;;;;;;;;5056026;28;20017;-58
2023/05/20 05:39:46;;;;;;;3.88;3.45;;;;;;;;;;5055632;28;20035;-58
2023/05/20 05:42:13;;;;;;;4.85;3.92;;;;;;;;;;5055357;28;20075;-58
2023/05/20 05:44:38;;;;;;;4.60;3.70;;;;;;;;;;5055310;28;20020;-58
2023/05/20 05:47:05;;;;;;;5.00;3.42;;;;;;;;;;5056025;28;20450;-58
2023/05/20 05:49:31;;;;;;;4.13;3.47;;;;;;;;;;5055979;28;20036;-58
2023/05/20 05:51:57;;;;;;;7.20;4.28;;;;;;;;;;5054901;28;20029;-58
2023/05/20 05:54:23;;;;;;;6.57;3.47;;;;;;;;;;5055447;28;20021;-58
2023/05/20 05:56:53;;;;;;;3.70;3.33;;;;;;;;;;5055829;28;20332;-58
2023/05/20 05:59:19;;;;;;;4.55;3.83;;;;;;;;;;5055261;28;20048;-58
2023/05/20 06:01:45;;;;;;;5.28;4.32;;;;;;;;;;5055681;28;20167;-58
2023/05/20 06:04:11;;;;;;;5.53;4.47;;;;;;;;;;5054981;28;20108;-58
2023/05/20 06:06:37;;;;;;;4.18;3.53;;;;;;;;;;5054184;28;20021;-58
2023/05/20 06:09:04;;;;;;;5.15;3.30;;;;;;;;;;5055134;28;20082;-58
2023/05/20 06:11:30;;;;;;;4.60;3.95;;;;;;;;;;5054758;28;20108;-58
2023/05/20 06:13:56;;;;;;;5.38;3.67;;;;;;;;;;5054418;28;20084;-58
2023/05/20 06:16:22;;;;;;;4.38;3.97;;;;;;;;;;5055100;28;20033;-59
2023/05/20 06:18:52;;;;;;;4.85;4.13;;;;;;;;;;5055090;28;20025;-58
2023/05/20 06:21:18;;;;;;;4.78;4.05;;;;;;;;;;5054537;28;20036;-58
2023/05/20 06:23:44;;;;;;;4.85;4.07;;;;;;;;;;5054510;28;20029;-58
2023/05/20 06:26:10;;;;;;;4.65;4.13;;;;;;;;;;5054495;28;20044;-58
2023/05/20 06:28:36;;;;;;;4.35;3.35;;;;;;;;;;5054457;28;20471;-58
2023/05/20 06:31:02;;;;;;;4.63;3.75;;;;;;;;;;5054420;28;20044;-58
2023/05/20 06:33:28;;;;;;;4.47;3.50;;;;;;;;;;5054344;28;20103;-58
2023/05/20 06:35:55;;;;;;;4.25;3.70;;;;;;;;;;5054378;28;20033;-58
2023/05/20 06:38:21;;;;;;;3.80;3.38;;;;;;;;;;5054230;28;20025;-59
2023/05/20 06:40:50;;;;;;;5.45;3.88;;;;;;;;;;5054479;28;20039;-58
2023/05/20 06:43:16;;;;;;;4.18;3.65;;;;;;;;;;5054204;28;20035;-59
2023/05/20 06:45:43;;;;;;;5.78;4.30;;;;;;;;;;5054169;28;20478;-59
2023/05/20 06:48:09;;;;;;;5.72;3.78;;;;;;;;;;5054097;28;20036;-59
2023/05/20 06:50:35;;;;;;;5.30;4.43;;;;;;;;;;5054033;28;20037;-59
2023/05/20 06:53:01;;;;;;;5.35;4.28;;;;;;;;;;5054059;28;20087;-59
2023/05/20 06:55:27;;;;;;;4.78;4.25;;;;;;;;;;5053694;28;20060;-59
2023/05/20 06:57:53;;;;;;;5.82;3.90;;;;;;;;;;5054795;28;20432;-59
2023/05/20 07:00:19;;;;;;;5.97;4.60;;;;;;;;;;5054205;28;20111;-59
2023/05/20 07:02:45;;;;;;;11.52;4.18;;;;;;;;;;5053965;28;20390;-59
2023/05/20 07:05:11;;;;;;;4.47;4.03;;;;;;;;;;5053863;28;20029;-60
2023/05/20 07:07:38;;;;;;;4.68;3.60;;;;;;;;;;5054376;28;20032;-59
2023/05/20 07:10:04;;;;;;;4.88;4.13;;;;;;;;;;5053717;28;20060;-59
2023/05/20 07:12:31;;;;;;;4.22;3.83;;;;;;;;;;5053919;28;20026;-59
2023/05/20 07:14:56;;;;;;;5.28;4.78;;;;;;;;;;5053757;28;20049;-60
2023/05/20 07:17:23;;;;;;;4.05;3.65;;;;;;;;;;5053573;28;20032;-57
2023/05/20 07:19:49;;;;;;;7.38;4.28;;;;;;;;;;5053532;28;20056;-57
2023/05/20 07:22:15;;;;;;;8.63;4.43;;;;;;;;;;5053595;28;20064;-57
2023/05/20 07:24:41;;;;;;;6.75;4.68;;;;;;;;;;5053380;28;20471;-57
2023/05/20 07:27:07;;;;;;;4.40;4.00;;;;;;;;;;5054131;28;20402;-57
2023/05/20 07:29:34;;;;;;;5.85;4.28;;;;;;;;;;5053442;28;20083;-57
2023/05/20 07:32:00;;;;;;;4.80;4.18;;;;;;;;;;5053299;28;20501;-59
2023/05/20 07:34:26;;;;;;;5.28;4.43;;;;;;;;;;5053948;28;20025;-57
2023/05/20 07:36:52;;;;;;;5.25;4.72;;;;;;;;;;5054448;28;20342;-57
2023/05/20 07:39:18;;;;;;;4.68;4.00;;;;;;;;;;5054023;28;20029;-57
2023/05/20 07:41:44;;;;;;;8.85;6.43;;;;;;;;;;5053466;28;20063;-57
2023/05/20 07:44:11;;;;;;;4.45;3.85;;;;;;;;;;5053981;28;20029;-57
2023/05/20 07:46:37;;;;;;;5.13;4.25;;;;;;;;;;5053542;28;20116;-57
2023/05/20 07:49:04;;;;;;;5.25;4.15;;;;;;;;;;5053382;28;20134;-57
2023/05/20 07:51:30;;;;;;;5.85;4.20;;;;;;;;;;5053564;28;20467;-57
2023/05/20 07:53:56;;;;;;;5.38;4.88;;;;;;;;;;5053320;28;20063;-57
2023/05/20 07:56:22;;;;;;;5.00;4.30;;;;;;;;;;5053929;28;20404;-57
2023/05/20 07:58:58;;;;;;;4.75;4.20;;;;;;;;;;5053008;28;20110;-57
2023/05/20 08:01:27;;;;;;;4.85;4.32;;;;;;;;;;5053772;28;20075;-57
2023/05/20 08:03:53;;;;;;;7.03;4.65;;;;;;;;;;5054003;28;20056;-57
2023/05/20 08:06:19;;;;;;;5.40;4.40;;;;;;;;;;5053392;28;20459;-58
2023/05/20 08:08:46;;;;;;;5.13;4.43;;;;;;;;;;5053826;28;20024;-57
2023/05/20 08:11:12;;;;;;;5.35;4.35;;;;;;;;;;5053164;28;20119;-57
2023/05/20 08:13:38;;;;;;;6.07;4.05;;;;;;;;;;5053140;28;20083;-58
2023/05/20 08:16:08;;;;;;;4.85;4.10;;;;;;;;;;5053562;28;20033;-57
2023/05/20 08:18:36;;;;;;;5.80;3.60;;;;;;;;;;5053216;28;20044;-57
2023/05/20 08:21:02;;;;;;;4.88;4.00;;;;;;;;;;5053041;28;20032;-58
2023/05/20 08:23:28;;;;;;;4.45;3.90;;;;;;;;;;5053081;28;20025;-58
2023/05/20 08:25:54;;;;;;;5.18;4.28;;;;;;;;;;5052870;28;20027;-58
2023/05/20 08:28:20;;;;;;;6.57;4.05;;;;;;;;;;5052969;28;20028;-58
2023/05/20 08:30:47;;;;;;;4.63;3.65;;;;;;;;;;5054805;28;20036;-58
2023/05/20 08:33:13;;;;;;;6.00;4.00;;;;;;;;;;5056693;28;20025;-58
2023/05/20 08:35:39;;;;;;;5.03;4.40;;;;;;;;;;5056648;28;20459;-58
2023/05/20 08:38:05;;;;;;;4.78;4.07;;;;;;;;;;5056580;28;20029;-58
2023/05/20 08:40:34;;;;;;;4.93;3.83;;;;;;;;;;5056562;28;20025;-58
2023/05/20 08:43:00;;;;;;;7.15;3.72;;;;;;;;;;5056507;28;20039;-58
2023/05/20 08:45:27;;;;;;;4.88;4.20;;;;;;;;;;5056459;28;20056;-58
2023/05/20 08:47:53;;;;;;;4.85;4.10;;;;;;;;;;5056967;28;20115;-58
2023/05/20 08:50:19;;;;;;;4.18;3.65;;;;;;;;;;5056924;28;20036;-58
2023/05/20 08:52:47;;;;;;;6.38;3.70;;;;;;;;;;5056301;28;20025;-58
2023/05/20 08:55:15;;;;;;;4.72;4.22;;;;;;;;;;5056204;28;20026;-58
2023/05/20 08:57:44;;;;;;;6.85;3.88;;;;;;;;;;5056244;28;20089;-58
2023/05/20 09:00:12;;;;;;;4.85;4.40;;;;;;;;;;5055962;28;20033;-58
2023/05/20 09:02:38;;;;;;;5.50;4.03;;;;;;;;;;5056059;28;20032;-58
2023/05/20 09:05:04;;;;;;;5.10;4.35;;;;;;;;;;5056367;28;20215;-58
2023/05/20 09:07:30;;;;;;;5.57;3.95;;;;;;;;;;5056261;28;20344;-58
2023/05/20 09:09:57;;;;;;;4.65;4.03;;;;;;;;;;5055735;28;20386;-58
2023/05/20 09:12:23;;;;;;;4.60;3.88;;;;;;;;;;5055594;28;20020;-58
2023/05/20 09:14:49;;;;;;;5.88;3.17;;;;;;;;;;5055445;28;20053;-58
2023/05/20 09:17:17;;;;;;;3.50;3.20;;;;;;;;;;5055824;28;20029;-59
2023/05/20 09:19:43;;;;;;;8.77;4.13;;;;;;;;;;5055763;28;20102;-58
2023/05/20 09:22:09;;;;;;;5.18;4.28;;;;;;;;;;5055795;28;20459;-58
2023/05/20 09:24:34;;;;;;;4.93;4.13;;;;;;;;;;5055946;28;20027;-58
2023/05/20 09:27:00;;;;;;;4.43;3.75;;;;;;;;;;5055989;28;20056;-58
2023/05/20 09:29:26;;;;;;;4.95;4.15;;;;;;;;;;5055548;28;20025;-59
2023/05/20 09:31:55;;;;;;;3.97;3.58;;;;;;;;;;5055572;28;20020;-59
2023/05/20 09:34:21;;;;;;;4.18;3.40;;;;;;;;;;5055834;28;20418;-59
2023/05/20 09:36:49;;;;;;;4.70;3.80;;;;;;;;;;5056024;28;20363;-59
2023/05/20 09:39:16;;;;;;;4.13;3.72;;;;;;;;;;5055374;28;20025;-59
2023/05/20 09:41:51;;;;;;;4.38;3.47;;;;;;;;;;5055135;28;20047;-59
2023/05/20 09:44:19;;;;;;;4.68;4.13;;;;;;;;;;5055346;28;20017;-59
2023/05/20 09:46:45;;;;;;;5.03;4.25;;;;;;;;;;5055402;28;20033;-59
2023/05/20 09:49:13;;;;;;;4.47;3.72;;;;;;;;;;5055902;28;20036;-59
2023/05/20 09:51:40;;;;;;;4.90;4.00;;;;;;;;;;5055179;28;20025;-59
2023/05/20 09:54:07;;;;;;;4.15;3.63;;;;;;;;;;5055152;28;20438;-59
2023/05/20 09:56:34;;;;;;;8.88;3.85;;;;;;;;;;5055591;28;20025;-59
2023/05/20 09:59:01;;;;;;;4.55;3.45;;;;;;;;;;5055484;28;20055;-59
2023/05/20 10:01:26;;;;;;;3.97;3.22;;;;;;;;;;5054875;28;20025;-59
2023/05/20 10:03:53;;;;;;;6.70;4.18;;;;;;;;;;5054972;28;20033;-59
2023/05/20 10:06:37;;;;;;;6.28;4.18;;;;;;;;;;5055192;28;20024;-59
2023/05/20 10:09:03;;;;;;;4.25;3.47;;;;;;;;;;5054759;28;20039;-59
2023/05/20 10:11:46;;;;;;;4.78;3.85;;;;;;;;;;5055015;28;20021;-59
2023/05/20 10:14:20;;;;;;;4.60;3.90;;;;;;;;;;5054617;28;20411;-59
2023/05/20 10:17:08;;;;;;;4.93;4.07;;;;;;;;;;5054950;28;20017;-59
2023/05/20 10:19:35;;;;;;;6.28;4.00;;;;;;;;;;5055012;28;20033;-58
2023/05/20 10:22:05;;;;;;;4.53;3.97;;;;;;;;;;5055088;28;20104;-59
2023/05/20 10:24:31;;;;;;;5.30;3.75;;;;;;;;;;5054577;28;20487;-60
2023/05/20 10:26:59;;;;;;;6.03;4.75;;;;;;;;;;5054744;28;20029;-59
2023/05/20 10:29:25;;;;;;;4.38;3.97;;;;;;;;;;5054403;28;20427;-60
2023/05/20 10:31:51;;;;;;;5.90;3.72;;;;;;;;;;5054351;28;20096;-59
2023/05/20 10:34:18;;;;;;;4.38;3.97;;;;;;;;;;5054297;28;20451;-59
2023/05/20 10:36:46;;;;;;;4.95;3.85;;;;;;;;;;5054780;28;20021;-59
2023/05/20 10:39:18;;;;;;;5.15;3.78;;;;;;;;;;5054121;28;20032;-59
2023/05/20 10:41:45;;;;;;;4.30;3.90;;;;;;;;;;5054781;28;20037;-60
2023/05/20 10:44:11;;;;;;;4.25;3.85;;;;;;;;;;5054144;28;20433;-60
2023/05/20 10:46:38;;;;;;;5.30;3.45;;;;;;;;;;5055003;28;20060;-59
2023/05/20 10:49:04;;;;;;;6.72;4.28;;;;;;;;;;5054641;28;20017;-59
2023/05/20 10:51:35;;;;;;;4.80;3.88;;;;;;;;;;5054034;28;20021;-59
2023/05/20 10:54:01;;;;;;;4.55;3.75;;;;;;;;;;5054165;28;20111;-60
2023/05/20 10:56:27;;;;;;;5.55;4.72;;;;;;;;;;5054268;28;20021;-59
2023/05/20 10:58:54;;;;;;;7.45;4.32;;;;;;;;;;5053996;28;20375;-60
2023/05/20 11:01:24;;;;;;;4.53;3.95;;;;;;;;;;5054633;28;20021;-59
2023/05/20 11:03:50;;;;;;;5.03;3.67;;;;;;;;;;5054377;28;20359;-60
2023/05/20 11:06:17;;;;;;;4.03;3.42;;;;;;;;;;5054215;28;20028;-59
2023/05/20 11:08:43;;;;;;;4.97;3.80;;;;;;;;;;5053634;28;20036;-59
2023/05/20 11:11:13;;;;;;;3.75;3.38;;;;;;;;;;5053750;28;20021;-59
2023/05/20 11:13:39;;;;;;;5.00;3.42;;;;;;;;;;5053539;28;20491;-59
2023/05/20 11:16:05;;;;;;;4.30;3.70;;;;;;;;;;5054132;28;20025;-59
2023/05/20 11:18:32;;;;;;;3.42;2.92;;;;;;;;;;5053631;28;20017;-59
2023/05/20 11:20:59;;;;;;;4.03;3.40;;;;;;;;;;5053511;28;20032;-59
2023/05/20 11:23:26;;;;;;;2.95;2.65;;;;;;;;;;5053446;28;20033;-59
2023/05/20 11:25:53;;;;;;;4.40;3.35;;;;;;;;;;5054206;28;20028;-59
2023/05/20 11:28:20;;;;;;;6.88;3.50;;;;;;;;;;5053581;28;20029;-60
2023/05/20 11:30:46;;;;;;;4.25;3.25;;;;;;;;;;5053570;28;20082;-59
2023/05/20 11:33:13;;;;;;;3.90;3.47;;;;;;;;;;5053392;28;20356;-60
2023/05/20 11:35:59;;;;;;;3.83;3.45;;;;;;;;;;5053449;28;20494;-59
2023/05/20 11:38:26;;;;;;;8.20;3.78;;;;;;;;;;5053937;28;20029;-60
2023/05/20 11:40:53;;;;;;;4.43;3.38;;;;;;;;;;5054124;28;20036;-59
2023/05/20 11:43:20;;;;;;;3.70;3.17;;;;;;;;;;5053026;28;20025;-58
2023/05/20 11:45:58;;;;;;;4.43;3.00;;;;;;;;;;5054270;28;20028;-58
2023/05/20 11:48:24;;;;;;;4.20;3.28;;;;;;;;;;5053468;28;20495;-59
2023/05/20 11:50:52;;;;;;;4.28;3.28;;;;;;;;;;5054091;28;20037;-59
2023/05/20 11:53:20;;;;;;;3.58;3.08;;;;;;;;;;5053448;28;20463;-60
2023/05/20 11:55:55;;;;;;;4.95;2.72;;;;;;;;;;5053001;28;20017;-60
2023/05/20 11:58:21;;;;;;;4.68;2.90;;;;;;;;;;5053141;28;20075;-58
2023/05/20 12:00:48;;;;;;;4.13;3.03;;;;;;;;;;5052740;28;20031;-58
2023/05/20 12:03:14;;;;;;;4.25;3.05;;;;;;;;;;5052665;28;20017;-59
2023/05/20 12:05:40;;;;;;;3.60;3.22;;;;;;;;;;5056650;28;20060;-60
2023/05/20 12:08:06;;;;;;;3.90;3.40;;;;;;;;;;5056982;28;20031;-60
2023/05/20 12:10:32;;;;;;;4.68;3.95;;;;;;;;;;5056882;28;20371;-60
2023/05/20 12:12:59;;;;;;;5.53;3.55;;;;;;;;;;5057273;28;20071;-59
2023/05/20 12:15:25;;;;;;;3.30;2.80;;;;;;;;;;5057862;28;20454;-60
2023/05/20 12:17:52;;;;;;;4.13;3.33;;;;;;;;;;5056927;28;20060;-60
2023/05/20 12:20:19;;;;;;;5.55;2.80;;;;;;;;;;5057064;28;20127;-60
2023/05/20 12:22:45;;;;;;;3.60;2.55;;;;;;;;;;5056374;28;20497;-60
2023/05/20 12:25:17;;;;;;;3.55;2.63;;;;;;;;;;5056750;28;20047;-60
2023/05/20 12:27:46;;;;;;;3.70;3.30;;;;;;;;;;5057520;28;20032;-58
2023/05/20 12:30:14;;;;;;;4.05;3.10;;;;;;;;;;5056576;28;20115;-58
2023/05/20 12:32:42;;;;;;;3.78;2.75;;;;;;;;;;5057134;28;20025;-58
2023/05/20 12:35:08;;;;;;;7.20;2.92;;;;;;;;;;5057041;28;20500;-58
2023/05/20 12:37:35;;;;;;;4.28;3.35;;;;;;;;;;5057201;28;20096;-59
2023/05/20 12:40:01;;;;;;;4.10;3.00;;;;;;;;;;5056375;28;20025;-58
2023/05/20 12:42:27;;;;;;;4.68;3.05;;;;;;;;;;5056658;28;20033;-59
2023/05/20 12:44:53;;;;;;;3.95;3.22;;;;;;;;;;5056493;28;20166;-59
2023/05/20 12:47:20;;;;;;;5.82;3.03;;;;;;;;;;5056146;28;20025;-59
2023/05/20 12:49:46;;;;;;;4.78;3.03;;;;;;;;;;5056119;28;20032;-59
2023/05/20 12:52:12;;;;;;;2.95;2.47;;;;;;;;;;5056189;28;20455;-59
2023/05/20 12:54:38;;;;;;;5.97;3.15;;;;;;;;;;5056313;28;20024;-59
2023/05/20 12:57:04;;;;;;;8.02;2.63;;;;;;;;;;5056331;28;20021;-59
2023/05/20 12:59:30;;;;;;;3.50;2.60;;;;;;;;;;5056194;28;20133;-59
2023/05/20 13:01:56;;;;;;;3.95;3.28;;;;;;;;;;5056119;28;20108;-59
2023/05/20 13:04:22;;;;;;;4.10;2.58;;;;;;;;;;5056530;28;20021;-59
2023/05/20 13:06:48;;;;;;;4.07;3.08;;;;;;;;;;5056717;28;20017;-59
2023/05/20 13:09:14;;;;;;;3.45;2.58;;;;;;;;;;5055980;28;20036;-59
2023/05/20 13:11:40;;;;;;;3.50;2.75;;;;;;;;;;5055833;28;20028;-59
2023/05/20 13:14:06;;;;;;;3.47;2.80;;;;;;;;;;5055484;28;20132;-59
2023/05/20 13:16:32;;;;;;;4.90;3.30;;;;;;;;;;5055013;28;20062;-59
2023/05/20 13:18:58;;;;;;;3.28;2.58;;;;;;;;;;5055720;28;20367;-59
2023/05/20 13:21:24;;;;;;;3.60;2.10;;;;;;;;;;5056121;28;20036;-59
2023/05/20 13:23:50;;;;;;;3.80;2.83;;;;;;;;;;5055628;28;20483;-59
2023/05/20 13:26:16;;;;;;;3.70;2.65;;;;;;;;;;5056182;28;20079;-59
2023/05/20 13:28:42;;;;;;;3.30;2.55;;;;;;;;;;5056127;28;20045;-59
2023/05/20 13:31:08;;;;;;;3.65;2.55;;;;;;;;;;5056439;28;20468;-59
2023/05/20 13:33:34;;;;;;;3.40;2.55;;;;;;;;;;5055491;28;20463;-59
2023/05/20 13:36:00;;;;;;;3.28;2.67;;;;;;;;;;5056123;28;20025;-59
2023/05/20 13:38:26;;;;;;;5.35;2.47;;;;;;;;;;5055469;28;20028;-59
2023/05/20 13:40:52;;;;;;;3.85;2.65;;;;;;;;;;5055254;28;20025;-59
2023/05/20 13:43:18;;;;;;;3.22;2.33;;;;;;;;;;5056108;28;20083;-59
2023/05/20 13:45:44;;;;;;;3.55;2.80;;;;;;;;;;5055252;28;20028;-59
2023/05/20 13:48:10;;;;;;;3.20;2.50;;;;;;;;;;5055016;28;20013;-59
2023/05/20 13:50:36;;;;;;;3.42;3.13;;;;;;;;;;5055768;28;20033;-59
2023/05/20 13:53:02;;;;;;;3.08;2.45;;;;;;;;;;5055261;28;20017;-59
2023/05/20 13:55:28;;;;;;;4.68;3.03;;;;;;;;;;5055035;28;20092;-59
2023/05/20 13:57:54;;;;;;;3.42;2.72;;;;;;;;;;5055402;28;20441;-59
2023/05/20 14:00:20;;;;;;;3.90;2.65;;;;;;;;;;5054911;28;20033;-59
2023/05/20 14:02:46;;;;;;;5.03;2.38;;;;;;;;;;5055013;28;20052;-59
2023/05/20 14:05:12;;;;;;;3.97;2.42;;;;;;;;;;5055172;28;20114;-59
2023/05/20 14:07:38;;;;;;;2.92;2.58;;;;;;;;;;5054988;28;20035;-59
2023/05/20 14:10:05;;;;;;;2.88;2.40;;;;;;;;;;5054792;28;20029;-59
2023/05/20 14:12:31;;;;;;;4.68;3.00;;;;;;;;;;5054718;28;20345;-59
2023/05/20 14:14:57;;;;;;;4.25;3.10;;;;;;;;;;5054340;28;20124;-59
2023/05/20 14:17:23;;;;;;;3.00;2.15;;;;;;;;;;5054435;28;20403;-59
2023/05/20 14:19:49;;;;;;;3.83;2.75;;;;;;;;;;5054727;28;20032;-59
2023/05/20 14:22:14;;;;;;;3.42;2.25;;;;;;;;;;5054916;28;20037;-59
2023/05/20 14:24:42;;;;;;;2.80;2.20;;;;;;;;;;5054573;28;20041;-59
2023/05/20 14:27:08;;;;;;;4.38;2.53;;;;;;;;;;5054492;28;20025;-59
2023/05/20 14:29:34;;;;;;;3.17;2.63;;;;;;;;;;5054465;28;20025;-59
2023/05/20 14:32:02;;;;;;;6.65;3.13;;;;;;;;;;5054651;28;20060;-59
2023/05/20 14:34:28;;;;;;;3.35;2.53;;;;;;;;;;5054743;28;20446;-58
2023/05/20 14:36:55;;;;;;;3.67;2.70;;;;;;;;;;5054997;28;20072;-59
2023/05/20 14:39:21;;;;;;;4.53;2.55;;;;;;;;;;5054720;28;20363;-59